sensor_id;sensor_type;location;lat;lon;timestamp;pressure;altitude;pressure_sealevel;temperature;humidity
35900;BME280;21998;44.112;12.318;2022-07-04T00:00:42;101055.16;;;25.81;65.04
35900;BME280;21998;44.112;12.318;2022-07-04T00:03:08;101057.84;;;25.81;64.56
35900;BME280;21998;44.112;12.318;2022-07-04T00:05:34;101058.72;;;25.83;65.07
35900;BME280;21998;44.112;12.318;2022-07-04T00:08:00;101059.53;;;25.87;64.43
35900;BME280;21998;44.112;12.318;2022-07-04T00:10:26;101050.66;;;25.83;64.61
35900;BME280;21998;44.112;12.318;2022-07-04T00:12:52;101049.75;;;25.84;64.71
35900;BME280;21998;44.112;12.318;2022-07-04T00:15:18;101052.34;;;25.87;64.51
35900;BME280;21998;44.112;12.318;2022-07-04T00:17:44;101049.63;;;25.89;64.76
35900;BME280;21998;44.112;12.318;2022-07-04T00:20:11;101054.25;;;25.82;64.88
35900;BME280;21998;44.112;12.318;2022-07-04T00:22:38;101059.69;;;25.79;64.99
35900;BME280;21998;44.112;12.318;2022-07-04T00:25:04;101056.28;;;25.72;65.64
35900;BME280;21998;44.112;12.318;2022-07-04T00:27:30;101048.09;;;25.77;65.31
35900;BME280;21998;44.112;12.318;2022-07-04T00:29:56;101049.31;;;25.64;66.41
35900;BME280;21998;44.112;12.318;2022-07-04T00:32:22;101047.53;;;25.61;66.34
35900;BME280;21998;44.112;12.318;2022-07-04T00:34:49;101049.41;;;25.57;67.07
35900;BME280;21998;44.112;12.318;2022-07-04T00:37:14;101054.97;;;25.50;66.72
35900;BME280;21998;44.112;12.318;2022-07-04T00:39:40;101051.81;;;25.71;65.86
35900;BME280;21998;44.112;12.318;2022-07-04T00:42:08;101050.09;;;25.69;65.79
35900;BME280;21998;44.112;12.318;2022-07-04T00:44:34;101052.06;;;25.61;66.01
35900;BME280;21998;44.112;12.318;2022-07-04T00:47:04;101052.97;;;25.59;66.46
35900;BME280;21998;44.112;12.318;2022-07-04T00:49:31;101051.22;;;25.57;67.68
35900;BME280;21998;44.112;12.318;2022-07-04T00:51:58;101061.50;;;25.38;68.82
35900;BME280;21998;44.112;12.318;2022-07-04T00:54:28;101061.53;;;25.35;70.05
35900;BME280;21998;44.112;12.318;2022-07-04T00:56:55;101065.31;;;25.24;70.46
35900;BME280;21998;44.112;12.318;2022-07-04T00:59:21;101070.72;;;25.23;70.53
35900;BME280;21998;44.112;12.318;2022-07-04T01:01:48;101068.91;;;25.25;70.34
35900;BME280;21998;44.112;12.318;2022-07-04T01:04:15;101072.84;;;25.07;72.36
35900;BME280;21998;44.112;12.318;2022-07-04T01:06:41;101067.88;;;24.85;74.30
35900;BME280;21998;44.112;12.318;2022-07-04T01:09:07;101073.31;;;24.82;74.36
35900;BME280;21998;44.112;12.318;2022-07-04T01:11:33;101074.91;;;24.92;72.88
35900;BME280;21998;44.112;12.318;2022-07-04T01:13:59;101077.00;;;24.75;74.70
35900;BME280;21998;44.112;12.318;2022-07-04T01:16:26;101078.91;;;24.70;76.87
35900;BME280;21998;44.112;12.318;2022-07-04T01:18:53;101078.97;;;24.63;76.80
35900;BME280;21998;44.112;12.318;2022-07-04T01:21:19;101079.78;;;24.70;76.93
35900;BME280;21998;44.112;12.318;2022-07-04T01:23:46;101078.81;;;24.73;75.79
35900;BME280;21998;44.112;12.318;2022-07-04T01:26:12;101077.06;;;24.72;76.30
35900;BME280;21998;44.112;12.318;2022-07-04T01:28:38;101076.22;;;24.68;74.91
35900;BME280;21998;44.112;12.318;2022-07-04T01:31:05;101073.34;;;24.81;74.01
35900;BME280;21998;44.112;12.318;2022-07-04T01:33:32;101087.63;;;24.81;74.58
35900;BME280;21998;44.112;12.318;2022-07-04T01:35:58;101087.63;;;24.81;75.19
35900;BME280;21998;44.112;12.318;2022-07-04T01:41:45;101082.50;;;24.69;77.35
35900;BME280;21998;44.112;12.318;2022-07-04T01:44:11;101082.50;;;24.69;77.09
35900;BME280;21998;44.112;12.318;2022-07-04T01:46:36;101082.50;;;24.66;76.98
35900;BME280;21998;44.112;12.318;2022-07-04T01:49:02;101078.91;;;24.70;75.51
35900;BME280;21998;44.112;12.318;2022-07-04T01:51:27;101077.91;;;24.74;75.27
35900;BME280;21998;44.112;12.318;2022-07-04T01:53:53;101073.63;;;24.62;75.96
35900;BME280;21998;44.112;12.318;2022-07-04T01:56:19;101080.00;;;24.56;76.90
35900;BME280;21998;44.112;12.318;2022-07-04T01:58:44;101077.13;;;24.66;75.63
35900;BME280;21998;44.112;12.318;2022-07-04T02:01:10;101067.41;;;24.58;76.27
35900;BME280;21998;44.112;12.318;2022-07-04T02:03:53;101076.00;;;24.27;78.94
35900;BME280;21998;44.112;12.318;2022-07-04T02:06:19;101067.63;;;24.46;76.50
35900;BME280;21998;44.112;12.318;2022-07-04T02:08:44;101065.03;;;24.43;76.48
35900;BME280;21998;44.112;12.318;2022-07-04T02:11:28;101066.94;;;24.35;77.37
35900;BME280;21998;44.112;12.318;2022-07-04T02:14:14;101067.09;;;24.25;78.61
35900;BME280;21998;44.112;12.318;2022-07-04T02:16:39;101065.44;;;24.15;78.79
35900;BME280;21998;44.112;12.318;2022-07-04T02:19:05;101066.56;;;24.02;80.75
35900;BME280;21998;44.112;12.318;2022-07-04T02:21:30;101066.72;;;23.89;81.51
35900;BME280;21998;44.112;12.318;2022-07-04T02:23:56;101070.28;;;23.88;82.70
35900;BME280;21998;44.112;12.318;2022-07-04T02:26:22;101063.84;;;24.05;80.95
35900;BME280;21998;44.112;12.318;2022-07-04T02:28:47;101076.38;;;24.03;80.22
35900;BME280;21998;44.112;12.318;2022-07-04T02:31:13;101080.97;;;23.94;80.85
35900;BME280;21998;44.112;12.318;2022-07-04T02:33:38;101081.06;;;23.83;81.80
35900;BME280;21998;44.112;12.318;2022-07-04T02:36:04;101080.28;;;23.77;82.78
35900;BME280;21998;44.112;12.318;2022-07-04T02:38:30;101082.28;;;23.62;83.34
35900;BME280;21998;44.112;12.318;2022-07-04T02:40:55;101088.59;;;23.57;84.62
35900;BME280;21998;44.112;12.318;2022-07-04T02:43:21;101087.75;;;23.53;84.66
35900;BME280;21998;44.112;12.318;2022-07-04T02:45:46;101079.63;;;23.59;84.53
35900;BME280;21998;44.112;12.318;2022-07-04T02:48:12;101075.13;;;23.61;84.41
35900;BME280;21998;44.112;12.318;2022-07-04T02:50:37;101074.41;;;23.50;86.84
35900;BME280;21998;44.112;12.318;2022-07-04T02:53:03;101081.69;;;23.37;87.79
35900;BME280;21998;44.112;12.318;2022-07-04T02:55:28;101071.78;;;23.44;87.26
35900;BME280;21998;44.112;12.318;2022-07-04T02:57:54;101069.06;;;23.47;85.47
35900;BME280;21998;44.112;12.318;2022-07-04T03:00:20;101076.22;;;23.48;85.50
35900;BME280;21998;44.112;12.318;2022-07-04T03:02:45;101077.22;;;23.37;86.45
35900;BME280;21998;44.112;12.318;2022-07-04T03:05:10;101079.94;;;23.33;87.83
35900;BME280;21998;44.112;12.318;2022-07-04T03:07:36;101069.97;;;23.46;87.00
35900;BME280;21998;44.112;12.318;2022-07-04T03:10:02;101067.34;;;23.43;86.45
35900;BME280;21998;44.112;12.318;2022-07-04T03:12:28;101071.66;;;23.53;84.69
35900;BME280;21998;44.112;12.318;2022-07-04T03:14:53;101069.94;;;23.49;85.61
35900;BME280;21998;44.112;12.318;2022-07-04T03:17:19;101073.56;;;23.46;85.28
35900;BME280;21998;44.112;12.318;2022-07-04T03:19:45;101064.72;;;23.36;86.32
35900;BME280;21998;44.112;12.318;2022-07-04T03:22:11;101071.84;;;23.37;86.31
35900;BME280;21998;44.112;12.318;2022-07-04T03:24:36;101075.59;;;23.24;87.78
35900;BME280;21998;44.112;12.318;2022-07-04T03:27:02;101075.66;;;23.16;88.70
35900;BME280;21998;44.112;12.318;2022-07-04T03:29:28;101078.22;;;23.29;87.46
35900;BME280;21998;44.112;12.318;2022-07-04T03:31:53;101079.31;;;23.08;89.13
35900;BME280;21998;44.112;12.318;2022-07-04T03:34:19;101066.81;;;23.10;89.30
35900;BME280;21998;44.112;12.318;2022-07-04T03:36:44;101072.28;;;22.99;89.61
35900;BME280;21998;44.112;12.318;2022-07-04T03:39:10;101070.59;;;22.87;90.76
35900;BME280;21998;44.112;12.318;2022-07-04T03:41:35;101066.09;;;22.90;90.59
35900;BME280;21998;44.112;12.318;2022-07-04T03:44:02;101077.75;;;22.88;91.12
35900;BME280;21998;44.112;12.318;2022-07-04T03:46:27;101076.88;;;22.84;92.03
35900;BME280;21998;44.112;12.318;2022-07-04T03:48:53;101091.22;;;22.77;92.67
35900;BME280;21998;44.112;12.318;2022-07-04T03:51:20;101084.16;;;22.71;92.61
35900;BME280;21998;44.112;12.318;2022-07-04T03:53:45;101088.59;;;22.72;92.79
35900;BME280;21998;44.112;12.318;2022-07-04T03:56:11;101092.19;;;22.71;93.03
35900;BME280;21998;44.112;12.318;2022-07-04T03:58:36;101087.69;;;22.75;92.39
35900;BME280;21998;44.112;12.318;2022-07-04T04:01:02;101089.41;;;22.82;92.50
35900;BME280;21998;44.112;12.318;2022-07-04T04:03:28;101092.06;;;22.84;92.11
35900;BME280;21998;44.112;12.318;2022-07-04T04:06:12;101084.91;;;22.86;92.06
35900;BME280;21998;44.112;12.318;2022-07-04T04:08:37;101091.22;;;22.79;92.85
35900;BME280;21998;44.112;12.318;2022-07-04T04:11:03;101079.59;;;22.83;92.67
35900;BME280;21998;44.112;12.318;2022-07-04T04:13:29;101084.03;;;22.84;94.23
35900;BME280;21998;44.112;12.318;2022-07-04T04:15:54;101088.41;;;22.93;91.50
35900;BME280;21998;44.112;12.318;2022-07-04T04:18:20;101084.78;;;22.98;91.70
35900;BME280;21998;44.112;12.318;2022-07-04T04:20:45;101082.09;;;23.00;92.03
35900;BME280;21998;44.112;12.318;2022-07-04T04:23:11;101087.41;;;23.03;92.58
35900;BME280;21998;44.112;12.318;2022-07-04T04:25:36;101083.88;;;22.99;92.50
35900;BME280;21998;44.112;12.318;2022-07-04T04:28:02;101091.84;;;23.05;92.45
35900;BME280;21998;44.112;12.318;2022-07-04T04:30:27;101095.38;;;23.08;91.83
35900;BME280;21998;44.112;12.318;2022-07-04T04:32:53;101089.03;;;23.15;91.46
35900;BME280;21998;44.112;12.318;2022-07-04T04:35:19;101089.06;;;23.16;91.82
35900;BME280;21998;44.112;12.318;2022-07-04T04:37:44;101092.56;;;23.25;91.58
35900;BME280;21998;44.112;12.318;2022-07-04T04:40:11;101089.94;;;23.20;92.32
35900;BME280;21998;44.112;12.318;2022-07-04T04:42:36;101095.13;;;23.34;91.25
35900;BME280;21998;44.112;12.318;2022-07-04T04:45:04;101095.94;;;23.41;91.04
35900;BME280;21998;44.112;12.318;2022-07-04T04:47:29;101095.88;;;23.44;90.87
35900;BME280;21998;44.112;12.318;2022-07-04T04:49:55;101097.47;;;23.60;90.45
35900;BME280;21998;44.112;12.318;2022-07-04T04:52:20;101105.34;;;23.73;88.89
35900;BME280;21998;44.112;12.318;2022-07-04T04:54:46;101107.91;;;23.82;87.49
35900;BME280;21998;44.112;12.318;2022-07-04T04:57:11;101107.78;;;23.90;88.03
35900;BME280;21998;44.112;12.318;2022-07-04T04:59:37;101111.34;;;23.92;87.69
35900;BME280;21998;44.112;12.318;2022-07-04T05:02:03;101111.34;;;23.93;88.89
35900;BME280;21998;44.112;12.318;2022-07-04T05:04:29;101112.22;;;23.95;88.56
35900;BME280;21998;44.112;12.318;2022-07-04T05:06:55;101107.56;;;24.10;87.69
35900;BME280;21998;44.112;12.318;2022-07-04T05:09:21;101107.53;;;24.13;87.90
35900;BME280;21998;44.112;12.318;2022-07-04T05:11:48;101100.97;;;24.29;86.55
35900;BME280;21998;44.112;12.318;2022-07-04T05:14:14;101096.38;;;24.38;86.80
35900;BME280;21998;44.112;12.318;2022-07-04T05:16:40;101094.47;;;24.46;87.15
35900;BME280;21998;44.112;12.318;2022-07-04T05:19:05;101088.09;;;24.53;85.10
35900;BME280;21998;44.112;12.318;2022-07-04T05:21:31;101093.31;;;24.62;84.43
35900;BME280;21998;44.112;12.318;2022-07-04T05:23:57;101096.84;;;24.66;86.19
35900;BME280;21998;44.112;12.318;2022-07-04T05:26:23;101096.66;;;24.77;86.43
35900;BME280;21998;44.112;12.318;2022-07-04T05:28:49;101098.44;;;24.78;86.00
35900;BME280;21998;44.112;12.318;2022-07-04T05:31:14;101094.81;;;24.79;86.05
35900;BME280;21998;44.112;12.318;2022-07-04T05:33:40;101090.19;;;24.89;85.76
35900;BME280;21998;44.112;12.318;2022-07-04T05:36:06;101086.44;;;24.98;84.88
35900;BME280;21998;44.112;12.318;2022-07-04T05:38:32;101088.03;;;25.08;83.36
35900;BME280;21998;44.112;12.318;2022-07-04T05:40:57;101085.19;;;25.16;83.57
35900;BME280;21998;44.112;12.318;2022-07-04T05:43:23;101093.00;;;25.28;82.78
35900;BME280;21998;44.112;12.318;2022-07-04T05:45:51;101087.63;;;25.28;82.71
35900;BME280;21998;44.112;12.318;2022-07-04T05:48:17;101084.00;;;25.32;82.96
35900;BME280;21998;44.112;12.318;2022-07-04T05:50:42;101090.13;;;25.39;82.47
35900;BME280;21998;44.112;12.318;2022-07-04T05:53:08;101090.00;;;25.45;82.82
35900;BME280;21998;44.112;12.318;2022-07-04T05:55:33;101077.38;;;25.50;84.07
35900;BME280;21998;44.112;12.318;2022-07-04T05:58:00;101088.00;;;25.56;85.70
35900;BME280;21998;44.112;12.318;2022-07-04T06:00:26;101080.72;;;25.62;83.19
35900;BME280;21998;44.112;12.318;2022-07-04T06:02:51;101078.69;;;25.71;83.44
35900;BME280;21998;44.112;12.318;2022-07-04T06:05:17;101081.16;;;25.82;77.01
35900;BME280;21998;44.112;12.318;2022-07-04T06:07:43;101081.78;;;25.94;76.34
35900;BME280;21998;44.112;12.318;2022-07-04T06:10:09;101087.03;;;26.00;78.13
35900;BME280;21998;44.112;12.318;2022-07-04T06:12:35;101088.69;;;26.07;77.06
35900;BME280;21998;44.112;12.318;2022-07-04T06:15:01;101087.63;;;26.14;77.64
35900;BME280;21998;44.112;12.318;2022-07-04T06:17:26;101087.38;;;26.25;78.82
35900;BME280;21998;44.112;12.318;2022-07-04T06:19:53;101086.19;;;26.35;79.70
35900;BME280;21998;44.112;12.318;2022-07-04T06:22:18;101081.56;;;26.42;78.61
35900;BME280;21998;44.112;12.318;2022-07-04T06:24:44;101076.66;;;26.58;80.61
35900;BME280;21998;44.112;12.318;2022-07-04T06:27:10;101073.75;;;26.67;80.56
35900;BME280;21998;44.112;12.318;2022-07-04T06:29:35;101081.63;;;26.75;81.42
35900;BME280;21998;44.112;12.318;2022-07-04T06:32:01;101063.63;;;26.77;81.68
35900;BME280;21998;44.112;12.318;2022-07-04T06:34:26;101072.41;;;26.85;81.39
35900;BME280;21998;44.112;12.318;2022-07-04T06:37:10;101074.88;;;26.93;80.53
35900;BME280;21998;44.112;12.318;2022-07-04T06:39:36;101068.00;;;27.14;78.71
35900;BME280;21998;44.112;12.318;2022-07-04T06:42:01;101072.84;;;27.33;76.25
35900;BME280;21998;44.112;12.318;2022-07-04T06:44:27;101067.28;;;27.39;75.05
35900;BME280;21998;44.112;12.318;2022-07-04T06:46:52;101072.44;;;27.48;74.76
35900;BME280;21998;44.112;12.318;2022-07-04T06:49:19;101076.25;;;27.71;71.50
35900;BME280;21998;44.112;12.318;2022-07-04T06:51:44;101072.47;;;27.77;71.64
35900;BME280;21998;44.112;12.318;2022-07-04T06:54:10;101074.94;;;27.85;71.49
35900;BME280;21998;44.112;12.318;2022-07-04T06:56:35;101072.56;;;28.02;70.71
35900;BME280;21998;44.112;12.318;2022-07-04T06:59:01;101073.81;;;28.20;62.54
35900;BME280;21998;44.112;12.318;2022-07-04T07:01:28;101077.72;;;28.38;64.80
35900;BME280;21998;44.112;12.318;2022-07-04T07:03:54;101074.19;;;28.63;63.11
35900;BME280;21998;44.112;12.318;2022-07-04T07:06:19;101075.34;;;28.56;63.62
35900;BME280;21998;44.112;12.318;2022-07-04T07:08:45;101084.22;;;28.59;63.50
35900;BME280;21998;44.112;12.318;2022-07-04T07:11:10;101079.50;;;28.93;57.42
35900;BME280;21998;44.112;12.318;2022-07-04T07:13:44;101074.34;;;29.11;56.67
35900;BME280;21998;44.112;12.318;2022-07-04T07:16:11;101077.66;;;29.19;58.49
35900;BME280;21998;44.112;12.318;2022-07-04T07:18:37;101075.34;;;29.33;55.18
35900;BME280;21998;44.112;12.318;2022-07-04T07:21:03;101068.97;;;29.58;54.64
35900;BME280;21998;44.112;12.318;2022-07-04T07:23:29;101067.66;;;29.46;55.71
35900;BME280;21998;44.112;12.318;2022-07-04T07:25:55;101068.28;;;29.53;55.03
35900;BME280;21998;44.112;12.318;2022-07-04T07:28:20;101067.91;;;29.86;52.26
35900;BME280;21998;44.112;12.318;2022-07-04T07:30:46;101067.47;;;29.97;52.56
35900;BME280;21998;44.112;12.318;2022-07-04T07:33:11;101060.19;;;29.99;53.56
35900;BME280;21998;44.112;12.318;2022-07-04T07:35:37;101052.44;;;30.12;53.83
35900;BME280;21998;44.112;12.318;2022-07-04T07:38:03;101058.28;;;30.23;52.97
35900;BME280;21998;44.112;12.318;2022-07-04T07:40:29;101058.19;;;30.47;51.81
35900;BME280;21998;44.112;12.318;2022-07-04T07:42:54;101056.91;;;30.57;52.73
35900;BME280;21998;44.112;12.318;2022-07-04T07:45:20;101059.06;;;30.70;52.80
35900;BME280;21998;44.112;12.318;2022-07-04T07:47:46;101051.53;;;30.76;48.68
35900;BME280;21998;44.112;12.318;2022-07-04T07:50:12;101050.09;;;30.88;50.08
35900;BME280;21998;44.112;12.318;2022-07-04T07:52:38;101048.00;;;30.95;48.75
35900;BME280;21998;44.112;12.318;2022-07-04T07:55:05;101046.16;;;31.16;47.67
35900;BME280;21998;44.112;12.318;2022-07-04T07:57:32;101044.59;;;31.50;46.36
35900;BME280;21998;44.112;12.318;2022-07-04T07:59:57;101046.59;;;31.47;46.30
35900;BME280;21998;44.112;12.318;2022-07-04T08:02:23;101038.56;;;31.63;48.35
35900;BME280;21998;44.112;12.318;2022-07-04T08:05:10;101027.84;;;31.59;46.17
35900;BME280;21998;44.112;12.318;2022-07-04T08:07:36;101032.44;;;31.78;46.39
35900;BME280;21998;44.112;12.318;2022-07-04T08:10:03;101019.66;;;31.80;45.33
35900;BME280;21998;44.112;12.318;2022-07-04T08:12:29;101030.19;;;31.86;44.36
35900;BME280;21998;44.112;12.318;2022-07-04T08:14:54;101033.50;;;31.93;45.27
35900;BME280;21998;44.112;12.318;2022-07-04T08:17:20;101033.81;;;32.23;45.10
35900;BME280;21998;44.112;12.318;2022-07-04T08:19:45;101021.63;;;32.32;45.87
35900;BME280;21998;44.112;12.318;2022-07-04T08:22:11;101024.75;;;32.42;43.20
35900;BME280;21998;44.112;12.318;2022-07-04T08:24:36;101020.03;;;32.46;44.58
35900;BME280;21998;44.112;12.318;2022-07-04T08:27:02;101013.69;;;32.63;44.36
35900;BME280;21998;44.112;12.318;2022-07-04T08:29:27;101009.22;;;32.79;43.53
35900;BME280;21998;44.112;12.318;2022-07-04T08:31:56;101001.88;;;32.81;44.00
35900;BME280;21998;44.112;12.318;2022-07-04T08:34:22;101004.75;;;33.12;43.91
35900;BME280;21998;44.112;12.318;2022-07-04T08:36:49;101000.34;;;33.09;43.23
35900;BME280;21998;44.112;12.318;2022-07-04T08:39:14;101006.72;;;33.26;42.55
35900;BME280;21998;44.112;12.318;2022-07-04T08:41:41;101005.13;;;33.22;43.64
35900;BME280;21998;44.112;12.318;2022-07-04T08:44:10;101002.72;;;33.33;43.52
35900;BME280;21998;44.112;12.318;2022-07-04T08:46:41;101013.34;;;33.54;42.92
35900;BME280;21998;44.112;12.318;2022-07-04T08:49:24;101006.22;;;33.67;41.98
35900;BME280;21998;44.112;12.318;2022-07-04T08:51:53;101001.69;;;33.84;41.24
35900;BME280;21998;44.112;12.318;2022-07-04T08:54:22;101000.84;;;33.81;42.59
35900;BME280;21998;44.112;12.318;2022-07-04T08:57:12;100996.66;;;33.92;43.22
35900;BME280;21998;44.112;12.318;2022-07-04T08:59:57;101003.84;;;34.09;41.19
35900;BME280;21998;44.112;12.318;2022-07-04T09:02:27;101002.44;;;34.32;42.11
35900;BME280;21998;44.112;12.318;2022-07-04T09:04:52;101005.63;;;34.40;41.84
35900;BME280;21998;44.112;12.318;2022-07-04T09:07:18;101009.31;;;34.39;40.77
35900;BME280;21998;44.112;12.318;2022-07-04T09:09:44;101010.28;;;34.38;41.43
35900;BME280;21998;44.112;12.318;2022-07-04T09:12:10;101012.94;;;34.69;41.10
35900;BME280;21998;44.112;12.318;2022-07-04T09:14:37;101004.00;;;34.67;41.19
35900;BME280;21998;44.112;12.318;2022-07-04T09:17:04;101008.00;;;34.61;41.15
35900;BME280;21998;44.112;12.318;2022-07-04T09:19:30;101018.34;;;34.70;40.44
35900;BME280;21998;44.112;12.318;2022-07-04T09:21:55;101015.44;;;34.88;39.66
35900;BME280;21998;44.112;12.318;2022-07-04T09:24:52;101020.44;;;34.96;40.45
35900;BME280;21998;44.112;12.318;2022-07-04T09:27:37;101024.72;;;35.00;40.62
35900;BME280;21998;44.112;12.318;2022-07-04T09:30:06;101021.00;;;35.01;40.44
35900;BME280;21998;44.112;12.318;2022-07-04T09:32:40;101032.09;;;35.27;40.18
35900;BME280;21998;44.112;12.318;2022-07-04T09:35:15;101028.78;;;35.50;39.91
35900;BME280;21998;44.112;12.318;2022-07-04T09:37:44;101036.09;;;35.64;38.57
35900;BME280;21998;44.112;12.318;2022-07-04T09:40:34;101022.19;;;35.82;38.71
35900;BME280;21998;44.112;12.318;2022-07-04T09:43:20;101027.78;;;35.66;38.41
35900;BME280;21998;44.112;12.318;2022-07-04T09:45:59;101025.44;;;35.74;38.46
35900;BME280;21998;44.112;12.318;2022-07-04T09:48:27;101029.00;;;35.89;39.16
35900;BME280;21998;44.112;12.318;2022-07-04T09:51:12;101019.50;;;35.67;36.96
35900;BME280;21998;44.112;12.318;2022-07-04T09:53:37;101016.53;;;35.85;37.39
35900;BME280;21998;44.112;12.318;2022-07-04T09:56:03;101009.38;;;35.55;38.04
35900;BME280;21998;44.112;12.318;2022-07-04T09:58:28;101023.00;;;36.11;39.03
35900;BME280;21998;44.112;12.318;2022-07-04T10:00:59;101027.63;;;35.82;37.47
35900;BME280;21998;44.112;12.318;2022-07-04T10:03:27;101020.16;;;36.26;37.91
35900;BME280;21998;44.112;12.318;2022-07-04T10:08:29;101017.97;;;36.18;36.15
35900;BME280;21998;44.112;12.318;2022-07-04T10:10:59;101015.66;;;36.52;36.82
35900;BME280;21998;44.112;12.318;2022-07-04T10:13:25;101020.63;;;36.32;35.56
35900;BME280;21998;44.112;12.318;2022-07-04T10:15:52;101012.38;;;36.73;36.52
35900;BME280;21998;44.112;12.318;2022-07-04T10:18:22;101019.06;;;36.82;35.76
35900;BME280;21998;44.112;12.318;2022-07-04T10:20:50;101018.97;;;37.09;36.33
35900;BME280;21998;44.112;12.318;2022-07-04T10:23:18;101022.22;;;37.40;35.00
35900;BME280;21998;44.112;12.318;2022-07-04T10:25:48;101016.97;;;37.37;35.61
35900;BME280;21998;44.112;12.318;2022-07-04T10:28:14;101006.63;;;37.53;34.56
35900;BME280;21998;44.112;12.318;2022-07-04T10:30:41;101006.13;;;37.72;34.99
35900;BME280;21998;44.112;12.318;2022-07-04T10:33:11;101007.56;;;37.28;34.65
35900;BME280;21998;44.112;12.318;2022-07-04T10:38:45;101016.91;;;37.00;35.30
35900;BME280;21998;44.112;12.318;2022-07-04T10:41:11;101010.63;;;36.85;35.34
35900;BME280;21998;44.112;12.318;2022-07-04T10:43:53;101003.00;;;37.03;35.33
35900;BME280;21998;44.112;12.318;2022-07-04T10:46:25;101001.25;;;37.02;35.23
35900;BME280;21998;44.112;12.318;2022-07-04T10:48:53;100996.22;;;36.70;35.79
35900;BME280;21998;44.112;12.318;2022-07-04T10:51:39;100987.22;;;37.19;36.42
35900;BME280;21998;44.112;12.318;2022-07-04T10:54:08;100989.72;;;37.22;35.47
35900;BME280;21998;44.112;12.318;2022-07-04T10:56:37;100992.63;;;37.45;35.93
35900;BME280;21998;44.112;12.318;2022-07-04T10:59:21;100998.16;;;37.32;35.29
35900;BME280;21998;44.112;12.318;2022-07-04T11:01:52;100998.41;;;36.90;35.85
35900;BME280;21998;44.112;12.318;2022-07-04T11:07:23;101001.31;;;37.39;35.67
35900;BME280;21998;44.112;12.318;2022-07-04T11:17:55;101007.56;;;37.15;36.28
35900;BME280;21998;44.112;12.318;2022-07-04T11:20:23;100996.75;;;37.64;36.16
35900;BME280;21998;44.112;12.318;2022-07-04T11:22:49;100998.81;;;37.36;36.29
35900;BME280;21998;44.112;12.318;2022-07-04T11:25:15;100993.78;;;37.67;35.94
35900;BME280;21998;44.112;12.318;2022-07-04T11:27:41;101002.09;;;37.41;34.99
35900;BME280;21998;44.112;12.318;2022-07-04T11:30:08;100997.94;;;36.84;34.92
35900;BME280;21998;44.112;12.318;2022-07-04T11:32:35;100992.72;;;36.80;35.47
35900;BME280;21998;44.112;12.318;2022-07-04T11:35:04;100990.09;;;36.66;35.52
35900;BME280;21998;44.112;12.318;2022-07-04T11:37:31;100994.19;;;37.23;35.05
35900;BME280;21998;44.112;12.318;2022-07-04T11:39:57;100992.28;;;37.00;35.27
35900;BME280;21998;44.112;12.318;2022-07-04T11:45:46;100986.63;;;36.90;34.88
35900;BME280;21998;44.112;12.318;2022-07-04T11:48:24;100979.06;;;37.31;36.21
35900;BME280;21998;44.112;12.318;2022-07-04T11:50:50;100969.81;;;37.20;35.41
35900;BME280;21998;44.112;12.318;2022-07-04T11:53:17;100968.97;;;37.07;35.52
35900;BME280;21998;44.112;12.318;2022-07-04T11:55:53;100968.72;;;37.36;34.35
35900;BME280;21998;44.112;12.318;2022-07-04T11:58:18;100962.66;;;37.31;33.50
35900;BME280;21998;44.112;12.318;2022-07-04T12:00:44;100960.75;;;37.07;34.06
35900;BME280;21998;44.112;12.318;2022-07-04T12:03:10;100964.69;;;36.51;34.84
35900;BME280;21998;44.112;12.318;2022-07-04T12:05:35;100961.13;;;36.23;34.60
35900;BME280;21998;44.112;12.318;2022-07-04T12:08:02;100962.09;;;36.22;34.07
35900;BME280;21998;44.112;12.318;2022-07-04T12:10:30;100959.41;;;36.35;35.44
35900;BME280;21998;44.112;12.318;2022-07-04T12:12:58;100954.16;;;36.84;33.66
35900;BME280;21998;44.112;12.318;2022-07-04T12:15:31;100956.16;;;36.82;32.40
35900;BME280;21998;44.112;12.318;2022-07-04T12:18:01;100950.69;;;36.94;32.31
35900;BME280;21998;44.112;12.318;2022-07-04T12:22:54;100957.00;;;36.17;32.80
35900;BME280;21998;44.112;12.318;2022-07-04T12:25:33;100950.16;;;36.63;33.42
35900;BME280;21998;44.112;12.318;2022-07-04T12:28:08;100957.69;;;36.86;33.97
35900;BME280;21998;44.112;12.318;2022-07-04T12:30:40;100953.28;;;36.31;34.22
35900;BME280;21998;44.112;12.318;2022-07-04T12:33:08;100947.59;;;36.35;33.02
35900;BME280;21998;44.112;12.318;2022-07-04T12:35:42;100946.84;;;36.58;32.11
35900;BME280;21998;44.112;12.318;2022-07-04T12:43:17;100941.25;;;36.21;34.78
35900;BME280;21998;44.112;12.318;2022-07-04T12:45:46;100937.91;;;36.95;34.51
35900;BME280;21998;44.112;12.318;2022-07-04T12:48:21;100941.38;;;36.84;33.08
35900;BME280;21998;44.112;12.318;2022-07-04T12:50:47;100935.34;;;37.05;31.12
35900;BME280;21998;44.112;12.318;2022-07-04T12:53:14;100933.16;;;37.10;33.68
35900;BME280;21998;44.112;12.318;2022-07-04T12:55:47;100934.84;;;37.37;31.42
35900;BME280;21998;44.112;12.318;2022-07-04T12:58:14;100928.13;;;37.54;32.13
35900;BME280;21998;44.112;12.318;2022-07-04T13:00:40;100936.72;;;37.61;31.24
35900;BME280;21998;44.112;12.318;2022-07-04T13:03:07;100924.81;;;37.11;31.43
35900;BME280;21998;44.112;12.318;2022-07-04T13:05:34;100933.03;;;37.73;30.98
35900;BME280;21998;44.112;12.318;2022-07-04T13:08:01;100915.47;;;38.35;29.23
35900;BME280;21998;44.112;12.318;2022-07-04T13:10:27;100921.91;;;37.87;29.57
35900;BME280;21998;44.112;12.318;2022-07-04T13:12:52;100916.28;;;37.53;31.23